Time;durP1;ratioP1;P1;durP2;ratioP2;P2;SDS_P1;SDS_P2;PMS_P1;PMS_P2;Temp;Humidity;BMP_temperature;BMP_pressure;BME280_temperature;BME280_humidity;BME280_pressure;Samples;Min_cycle;Max_cycle;Signal;HPM_P1;HPM_P2
2022/12/30 00:01:13;;;;;;;0.82;0.45;;;;;;;4.80;100.00;98343.03;7394810;19;20511;-58
2022/12/30 00:03:39;;;;;;;0.00;0.00;;;;;;;4.73;100.00;98340.63;7397377;19;20019;-58
2022/12/30 00:06:14;;;;;;;0.88;0.30;;;;;;;4.78;100.00;98337.22;7393177;19;20371;-58
2022/12/30 00:08:48;;;;;;;0.00;0.00;;;;;;;4.76;100.00;98336.94;7392916;19;20010;-58
2022/12/30 00:11:29;;;;;;;3.75;1.70;;;;;;;4.68;100.00;98333.78;7392725;19;20044;-58
2022/12/30 00:34:37;;;;;;;0.25;0.10;;;;;;;4.11;100.00;98297.34;7399844;19;20013;-54
2022/12/30 00:37:03;;;;;;;0.17;0.10;;;;;;;5.35;100.00;98289.56;7399776;19;20031;-81
2022/12/30 00:39:29;;;;;;;5.95;1.13;;;;;;;6.21;100.00;98272.47;7392256;19;20014;-81
2022/12/30 00:44:41;;;;;;;0.10;0.00;;;;;;;5.88;100.00;98275.56;7403921;19;20026;-82
2022/12/30 00:47:08;;;;;;;1.17;0.20;;;;;;;5.80;100.00;98274.44;7395971;19;20019;-80
2022/12/30 00:57:51;;;;;;;0.10;0.05;;;;;;;5.38;100.00;98249.97;7397712;19;20113;-81
2022/12/30 01:00:17;;;;;;;0.25;0.20;;;;;;;5.30;100.00;98248.88;7395427;19;20039;-80
2022/12/30 01:02:43;;;;;;;0.80;0.22;;;;;;;5.19;100.00;98239.63;7399584;19;20472;-81
2022/12/30 01:05:09;;;;;;;1.17;0.47;;;;;;;5.15;100.00;98239.84;7395811;19;20014;-80
2022/12/30 01:07:36;;;;;;;0.47;0.30;;;;;;;5.18;100.00;98236.13;7396558;19;20018;-81
2022/12/30 01:10:02;;;;;;;0.00;0.00;;;;;;;5.17;100.00;98233.84;7395316;19;20488;-82
2022/12/30 01:12:28;;;;;;;0.10;0.10;;;;;;;5.24;100.00;98230.69;7393526;19;20017;-83
2022/12/30 01:14:55;;;;;;;0.00;0.00;;;;;;;5.25;100.00;98223.91;7394783;19;20461;-82
2022/12/30 01:17:24;;;;;;;0.30;0.30;;;;;;;5.23;100.00;98218.88;7399885;19;20025;-82
2022/12/30 01:19:50;;;;;;;6.82;0.95;;;;;;;5.30;100.00;98215.75;7398145;19;20011;-82
2022/12/30 01:22:16;;;;;;;0.85;0.65;;;;;;;5.32;100.00;98213.25;7394202;19;20029;-82
2022/12/30 01:24:43;;;;;;;1.38;0.85;;;;;;;5.33;100.00;98214.00;7393914;19;20022;-82
2022/12/30 01:27:10;;;;;;;1.50;0.08;;;;;;;5.31;100.00;98206.22;7398580;19;20480;-82
2022/12/30 01:29:39;;;;;;;0.40;0.25;;;;;;;5.34;100.00;98190.69;7398509;19;20077;-82
2022/12/30 01:32:08;;;;;;;13.05;0.47;;;;;;;5.41;100.00;98195.81;7398042;19;20009;-82
2022/12/30 01:34:34;;;;;;;0.13;0.10;;;;;;;5.36;100.00;98191.75;7397183;19;20492;-81
2022/12/30 01:37:01;;;;;;;0.03;0.00;;;;;;;5.35;100.00;98194.97;7399229;19;20023;-83
2022/12/30 01:39:27;;;;;;;1.85;0.32;;;;;;;5.34;100.00;98190.69;7399643;19;20019;-81
2022/12/30 01:41:55;;;;;;;5.47;0.65;;;;;;;5.45;100.00;98187.31;7397288;19;20018;-82
2022/12/30 01:44:40;;;;;;;0.00;0.00;;;;;;;5.38;100.00;98177.44;7397620;19;20904;-81
2022/12/30 01:47:08;;;;;;;14.35;0.40;;;;;;;5.16;100.00;98179.88;7397768;19;20022;-82
2022/12/30 01:49:39;;;;;;;0.30;0.20;;;;;;;5.07;100.00;98168.97;7396765;19;20018;-81
2022/12/30 01:52:05;;;;;;;0.10;0.00;;;;;;;4.98;100.00;98160.81;7395320;19;20018;-82
2022/12/30 01:54:34;;;;;;;0.10;0.10;;;;;;;5.19;100.00;98148.59;7416938;19;20015;-56
2022/12/30 01:57:00;;;;;;;0.93;0.52;;;;;;;5.47;100.00;98149.72;7398563;19;20031;-56
2022/12/30 01:59:27;;;;;;;7.93;2.05;;;;;;;5.48;100.00;98156.00;7397985;19;20066;-56
2022/12/30 02:01:53;;;;;;;3.90;1.85;;;;;;;5.48;100.00;98142.19;7396457;19;20350;-56
2022/12/30 02:04:25;;;;;;;0.10;0.00;;;;;;;5.50;100.00;98129.41;7398486;19;20444;-56
2022/12/30 02:06:51;;;;;;;0.20;0.20;;;;;;;5.49;100.00;98133.44;7398893;19;20003;-56
2022/12/30 02:09:18;;;;;;;1.65;0.35;;;;;;;5.52;100.00;98121.44;7397362;19;20082;-56
2022/12/30 02:11:44;;;;;;;0.10;0.10;;;;;;;5.58;100.00;98111.22;7398046;19;20022;-56
2022/12/30 02:14:11;;;;;;;7.00;0.20;;;;;;;5.66;100.00;98104.00;7398256;19;20014;-56
2022/12/30 02:17:02;;;;;;;0.25;0.25;;;;;;;5.70;100.00;98098.28;7399913;19;20009;-56
2022/12/30 02:19:40;;;;;;;0.03;0.00;;;;;;;5.70;100.00;98103.78;7397204;19;20003;-55
2022/12/30 02:22:21;;;;;;;0.00;0.00;;;;;;;5.69;100.00;98097.53;7398397;19;20018;-56
2022/12/30 02:25:08;;;;;;;0.10;0.10;;;;;;;5.69;100.00;98086.50;7399533;19;21425;-56
2022/12/30 02:28:07;;;;;;;0.00;0.00;;;;;;;5.74;100.00;98099.56;7399172;19;20003;-56
2022/12/30 02:30:59;;;;;;;10.20;1.85;;;;;;;5.83;100.00;98082.84;7395964;19;20010;-55
2022/12/30 02:34:00;;;;;;;2.22;0.40;;;;;;;5.90;100.00;98071.41;7397668;19;20018;-55
2022/12/30 02:36:42;;;;;;;0.15;0.00;;;;;;;5.91;100.00;98059.09;7395784;19;20713;-55
2022/12/30 02:39:15;;;;;;;;;;;;;;;5.88;100.00;98060.09;7398742;19;20335;-55
2022/12/30 02:44:57;;;;;;;1.40;0.65;;;;;;;5.87;100.00;98044.75;7396593;19;20010;-56
2022/12/30 02:47:39;;;;;;;0.00;0.00;;;;;;;5.90;100.00;98040.25;7394619;19;20103;-55
2022/12/30 02:53:07;;;;;;;2.92;0.20;;;;;;;5.82;100.00;98028.88;7390690;19;20037;-56
2022/12/30 02:55:33;;;;;;;5.38;0.30;;;;;;;5.88;100.00;98004.84;7393702;19;20007;-55
2022/12/30 02:57:59;;;;;;;13.55;0.52;;;;;;;5.79;100.00;98010.50;7394632;19;20014;-55
2022/12/30 03:03:57;;;;;;;0.10;0.10;;;;;;;5.57;100.00;98013.03;7396904;19;20014;-56
2022/12/30 03:06:24;;;;;;;0.75;0.17;;;;;;;5.57;100.00;98023.31;7393835;19;20367;-55
2022/12/30 03:08:54;;;;;;;0.95;0.20;;;;;;;5.69;100.00;98020.22;7394161;19;20342;-55
2022/12/30 03:11:21;;;;;;;0.00;0.00;;;;;;;5.99;100.00;98016.00;7393970;19;20022;-56
2022/12/30 03:13:53;;;;;;;1.30;0.40;;;;;;;5.96;100.00;98016.97;7397291;19;20021;-56
2022/12/30 03:16:28;;;;;;;0.52;0.52;;;;;;;5.90;100.00;98002.34;7392489;19;20010;-56
2022/12/30 03:18:57;;;;;;;0.10;0.10;;;;;;;5.92;100.00;97999.09;7393840;19;20034;-56
2022/12/30 03:21:25;;;;;;;0.98;0.65;;;;;;;5.98;100.00;98003.41;7392184;19;20022;-55
2022/12/30 03:29:31;;;;;;;0.00;0.00;;;;;;;6.32;100.00;97953.94;7392233;19;20029;-56
2022/12/30 03:31:58;;;;;;;4.15;1.10;;;;;;;6.35;100.00;97942.66;7395130;19;20020;-56
2022/12/30 03:34:27;;;;;;;0.10;0.00;;;;;;;6.32;100.00;97949.19;7392041;19;20018;-56
2022/12/30 03:37:03;;;;;;;0.20;0.05;;;;;;;6.24;100.00;97930.78;7394054;19;20066;-56
2022/12/30 03:39:35;;;;;;;0.10;0.10;;;;;;;6.20;100.00;97919.16;7392623;19;20025;-56
2022/12/30 03:42:03;;;;;;;5.88;0.80;;;;;;;6.17;100.00;97915.41;7393861;19;20002;-56
2022/12/30 03:44:30;;;;;;;1.75;0.45;;;;;;;6.13;100.00;97925.19;7393054;19;20010;-56
2022/12/30 03:46:56;;;;;;;6.93;0.25;;;;;;;6.13;100.00;97911.34;7393010;19;20039;-56
2022/12/30 03:49:22;;;;;;;0.47;0.47;;;;;;;6.22;100.00;97919.44;7393475;19;20010;-56
2022/12/30 03:51:49;;;;;;;0.20;0.20;;;;;;;6.30;100.00;97901.16;7400449;19;20010;-56
2022/12/30 03:54:15;;;;;;;0.08;0.00;;;;;;;6.39;100.00;97904.47;7397781;19;20019;-56
2022/12/30 03:56:41;;;;;;;1.90;0.38;;;;;;;6.46;100.00;97909.53;7398105;19;20025;-56
2022/12/30 03:59:07;;;;;;;2.55;0.57;;;;;;;6.51;100.00;97888.69;7397475;19;20018;-56
2022/12/30 04:01:33;;;;;;;0.25;0.15;;;;;;;6.85;100.00;97888.34;7401794;19;20018;-56
2022/12/30 04:04:00;;;;;;;2.45;0.55;;;;;;;6.96;100.00;97884.09;7405364;19;20089;-56
2022/12/30 04:06:26;;;;;;;5.30;0.38;;;;;;;7.00;100.00;97874.28;7399872;19;20018;-56
2022/12/30 04:08:52;;;;;;;0.32;0.28;;;;;;;7.05;100.00;97856.94;7400541;19;20014;-56
2022/12/30 04:11:18;;;;;;;1.23;0.85;;;;;;;7.03;100.00;97855.94;7400065;19;20013;-56
2022/12/30 04:13:44;;;;;;;5.15;0.40;;;;;;;6.99;100.00;97841.59;7401234;19;20010;-56
2022/12/30 04:16:10;;;;;;;2.05;0.98;;;;;;;7.05;100.00;97834.81;7400475;19;20522;-56
2022/12/30 04:18:36;;;;;;;0.13;0.05;;;;;;;7.31;100.00;97832.56;7400136;19;20125;-56
2022/12/30 04:21:03;;;;;;;0.95;0.57;;;;;;;7.07;100.00;97826.00;7400162;19;20014;-56
2022/12/30 04:23:29;;;;;;;0.10;0.10;;;;;;;6.87;100.00;97822.19;7401813;19;20025;-55
2022/12/30 04:25:55;;;;;;;0.28;0.25;;;;;;;8.86;100.00;97798.16;7402245;19;20015;-56
2022/12/30 04:28:21;;;;;;;3.03;0.65;;;;;;;8.71;100.00;97765.19;7399305;19;20006;-57
2022/12/30 04:30:49;;;;;;;0.30;0.25;;;;;;;8.47;100.00;97778.94;7399964;19;20078;-55
2022/12/30 04:33:15;;;;;;;11.25;0.45;;;;;;;7.70;100.00;97790.25;7400978;19;20028;-56
2022/12/30 04:35:42;;;;;;;0.10;0.10;;;;;;;7.35;100.00;97797.09;7398753;19;20018;-57
2022/12/30 04:38:08;;;;;;;3.70;0.32;;;;;;;7.13;100.00;97791.53;7398698;19;20458;-56
2022/12/30 04:40:34;;;;;;;1.27;0.50;;;;;;;7.03;100.00;97784.75;7399913;19;21043;-58
2022/12/30 04:43:00;;;;;;;4.75;0.65;;;;;;;7.25;100.00;97781.22;7401781;19;20015;-58
2022/12/30 04:45:26;;;;;;;5.68;0.47;;;;;;;7.27;100.00;97770.41;7399238;19;20044;-58
2022/12/30 04:47:52;;;;;;;5.55;0.22;;;;;;;7.27;100.00;97754.56;7397376;19;20129;-58
2022/12/30 04:50:19;;;;;;;0.10;0.10;;;;;;;7.28;100.00;97756.06;7398820;19;20037;-58
2022/12/30 04:52:45;;;;;;;0.00;0.00;;;;;;;7.23;100.00;97748.53;7400259;19;20367;-58
2022/12/30 04:55:11;;;;;;;0.57;0.40;;;;;;;7.25;100.00;97740.47;7398078;19;20371;-58
2022/12/30 04:57:37;;;;;;;0.10;0.10;;;;;;;7.26;100.00;97738.44;7398341;19;20015;-58
2022/12/30 05:00:05;;;;;;;0.95;0.47;;;;;;;7.26;100.00;97746.75;7400071;19;20042;-58
2022/12/30 05:02:31;;;;;;;0.32;0.30;;;;;;;7.25;100.00;97734.94;7399307;19;20015;-57
2022/12/30 05:04:57;;;;;;;0.88;0.45;;;;;;;7.23;100.00;97720.09;7397822;19;20100;-58
2022/12/30 05:07:24;;;;;;;0.15;0.15;;;;;;;7.25;100.00;97725.88;7397605;19;20347;-57
2022/12/30 05:09:50;;;;;;;0.20;0.10;;;;;;;7.24;100.00;97724.34;7398830;19;20070;-58
2022/12/30 05:12:16;;;;;;;0.10;0.00;;;;;;;7.26;100.00;97719.06;7399091;19;20002;-58
2022/12/30 05:14:42;;;;;;;2.70;0.20;;;;;;;7.26;100.00;97691.38;7396913;19;20018;-58
2022/12/30 05:17:08;;;;;;;0.10;0.10;;;;;;;7.31;100.00;97679.53;7397417;19;20054;-58
2022/12/30 05:19:34;;;;;;;0.00;0.00;;;;;;;7.75;100.00;97681.44;7398432;19;20025;-58
2022/12/30 05:22:00;;;;;;;22.48;0.68;;;;;;;8.31;100.00;97672.41;7397956;19;20328;-58
2022/12/30 05:27:11;;;;;;;0.10;0.00;;;;;;;8.51;100.00;97649.06;7397230;19;20021;-58
2022/12/30 05:29:37;;;;;;;0.45;0.20;;;;;;;8.56;100.00;97664.16;7398095;19;20015;-58
2022/12/30 05:32:04;;;;;;;1.85;0.88;;;;;;;8.56;100.00;97659.38;7398763;19;20010;-58
2022/12/30 05:34:30;;;;;;;0.22;0.15;;;;;;;8.52;100.00;97663.69;7395617;19;20014;-57
2022/12/30 05:36:56;;;;;;;1.27;0.10;;;;;;;8.54;100.00;97645.25;7397113;19;20010;-58
2022/12/30 05:39:22;;;;;;;0.35;0.35;;;;;;;8.48;100.00;97647.31;7396599;19;20010;-58
2022/12/30 05:41:48;;;;;;;1.77;0.45;;;;;;;8.48;100.00;97630.69;7397898;19;20006;-58
2022/12/30 05:44:14;;;;;;;0.15;0.15;;;;;;;8.49;100.00;97621.06;7396832;19;20427;-58
2022/12/30 05:46:41;;;;;;;0.20;0.20;;;;;;;8.47;100.00;97622.88;7395473;19;20021;-58
2022/12/30 05:49:07;;;;;;;0.20;0.20;;;;;;;8.46;100.00;97605.47;7399977;19;20011;-56
2022/12/30 05:51:33;;;;;;;0.68;0.57;;;;;;;8.41;100.00;97600.72;7395923;19;20018;-56
2022/12/30 05:53:59;;;;;;;0.68;0.20;;;;;;;8.37;100.00;97597.47;7399583;19;20034;-58
2022/12/30 05:56:26;;;;;;;0.28;0.28;;;;;;;8.30;100.00;97586.94;7396078;19;20017;-58
2022/12/30 05:58:52;;;;;;;1.23;0.45;;;;;;;8.27;100.00;97571.34;7396187;19;20356;-59
2022/12/30 06:01:18;;;;;;;0.10;0.10;;;;;;;8.23;100.00;97573.59;7399011;19;20019;-58
2022/12/30 06:03:44;;;;;;;1.38;1.05;;;;;;;8.22;100.00;97559.00;7400240;19;20018;-58
2022/12/30 06:06:10;;;;;;;0.20;0.10;;;;;;;8.22;100.00;97555.47;7397070;19;20015;-56
2022/12/30 06:08:37;;;;;;;2.67;0.35;;;;;;;8.22;100.00;97561.00;7395773;19;20027;-58
2022/12/30 06:11:05;;;;;;;0.10;0.00;;;;;;;8.19;100.00;97543.38;7396628;19;20018;-56
2022/12/30 06:13:31;;;;;;;6.57;0.50;;;;;;;8.17;100.00;97529.28;7397963;19;20010;-56
2022/12/30 06:15:57;;;;;;;0.00;0.00;;;;;;;8.14;100.00;97529.56;7400758;19;20007;-57
2022/12/30 06:18:25;;;;;;;0.45;0.22;;;;;;;8.08;100.00;97531.59;7399468;19;20462;-56
2022/12/30 06:20:51;;;;;;;0.10;0.00;;;;;;;8.07;100.00;97519.03;7400550;19;20391;-56
2022/12/30 06:23:17;;;;;;;4.60;0.40;;;;;;;8.12;100.00;97529.34;7399202;19;20010;-56
2022/12/30 06:25:43;;;;;;;0.10;0.10;;;;;;;8.21;100.00;97523.44;7396288;19;20525;-57
2022/12/30 06:28:10;;;;;;;0.00;0.00;;;;;;;8.13;100.00;97511.41;7398508;19;20041;-57
2022/12/30 06:30:36;;;;;;;0.90;0.28;;;;;;;8.09;100.00;97514.47;7396967;19;20070;-56
2022/12/30 06:33:02;;;;;;;0.10;0.10;;;;;;;8.04;100.00;97520.06;7398817;19;20596;-57
2022/12/30 06:35:28;;;;;;;0.65;0.30;;;;;;;8.03;100.00;97519.31;7401054;19;20014;-57
2022/12/30 06:37:55;;;;;;;0.52;0.22;;;;;;;8.03;100.00;97511.00;7401373;19;20007;-57
2022/12/30 06:40:21;;;;;;;1.08;0.25;;;;;;;8.04;100.00;97501.41;7398266;19;20006;-56
2022/12/30 06:42:47;;;;;;;1.45;0.82;;;;;;;8.10;100.00;97502.13;7399674;19;20062;-57
2022/12/30 06:45:13;;;;;;;0.50;0.30;;;;;;;8.05;100.00;97489.06;7398870;19;20036;-57
2022/12/30 06:47:39;;;;;;;9.02;0.50;;;;;;;8.03;100.00;97499.16;7399715;19;20450;-57
2022/12/30 06:50:06;;;;;;;19.02;2.22;;;;;;;7.99;100.00;97479.28;7398754;19;20017;-57
2022/12/30 06:52:33;;;;;;;3.17;1.35;;;;;;;8.03;100.00;97479.75;7398749;19;20465;-56
2022/12/30 06:54:59;;;;;;;5.65;1.33;;;;;;;8.01;100.00;97476.75;7397237;19;20014;-57
2022/12/30 06:57:25;;;;;;;1.98;0.22;;;;;;;7.97;100.00;97460.38;7398239;19;20021;-57
2022/12/30 06:59:51;;;;;;;1.27;0.73;;;;;;;7.98;100.00;97466.69;7398753;19;20006;-57
2022/12/30 07:02:17;;;;;;;0.15;0.15;;;;;;;7.98;100.00;97455.59;7398595;19;20033;-57
2022/12/30 07:04:44;;;;;;;4.75;1.55;;;;;;;7.96;100.00;97452.59;7398614;19;20019;-57
2022/12/30 07:07:10;;;;;;;8.77;0.85;;;;;;;8.00;100.00;97458.59;7399072;19;20361;-57
2022/12/30 07:09:36;;;;;;;0.00;0.00;;;;;;;7.99;100.00;97441.22;7398835;19;20021;-57
2022/12/30 07:12:02;;;;;;;1.77;0.13;;;;;;;8.00;100.00;97436.44;7397123;19;20020;-57
2022/12/30 07:14:28;;;;;;;0.00;0.00;;;;;;;8.00;100.00;97433.66;7397284;19;20413;-57
2022/12/30 07:16:54;;;;;;;0.75;0.20;;;;;;;7.95;100.00;97415.09;7399225;19;20021;-56
2022/12/30 07:19:20;;;;;;;1.30;0.15;;;;;;;7.96;100.00;97413.81;7398703;19;20022;-56
2022/12/30 07:21:47;;;;;;;2.78;0.82;;;;;;;7.97;100.00;97404.22;7398673;19;20027;-56
2022/12/30 07:24:13;;;;;;;0.65;0.10;;;;;;;7.94;100.00;97394.94;7396280;19;20014;-55
2022/12/30 07:26:39;;;;;;;1.70;0.40;;;;;;;7.95;100.00;97401.97;7393285;19;20018;-56
2022/12/30 07:29:05;;;;;;;0.80;0.32;;;;;;;7.96;100.00;97386.09;7396835;19;20010;-56
2022/12/30 07:31:32;;;;;;;0.10;0.10;;;;;;;7.93;100.00;97376.03;7394072;19;20015;-56
2022/12/30 07:34:01;;;;;;;11.00;0.50;;;;;;;9.06;100.00;97379.31;7394980;19;20011;-56
2022/12/30 07:36:27;;;;;;;2.40;0.00;;;;;;;9.39;100.00;97360.69;7391829;19;20018;-56
2022/12/30 07:38:56;;;;;;;5.03;1.30;;;;;;;9.16;100.00;97358.22;7393838;19;20051;-56
2022/12/30 07:41:22;;;;;;;0.55;0.08;;;;;;;8.98;100.00;97356.22;7393976;19;20051;-56
2022/12/30 07:43:48;;;;;;;0.10;0.10;;;;;;;8.82;100.00;97342.56;7397466;19;20073;-56
2022/12/30 07:46:14;;;;;;;0.90;0.20;;;;;;;8.69;100.00;97346.00;7392902;19;20465;-56
2022/12/30 07:48:40;;;;;;;0.47;0.10;;;;;;;8.56;100.00;97334.81;7393586;19;20006;-56
2022/12/30 07:51:11;;;;;;;3.75;0.08;;;;;;;8.44;100.00;97339.00;7393598;19;20104;-56
2022/12/30 07:53:37;;;;;;;0.00;0.00;;;;;;;8.31;100.00;97327.81;7395943;19;20018;-56
2022/12/30 07:56:05;;;;;;;19.27;1.00;;;;;;;8.23;100.00;97315.75;7393110;19;20010;-56
2022/12/30 07:58:32;;;;;;;4.85;0.28;;;;;;;8.21;100.00;97302.41;7392923;19;20062;-56
2022/12/30 08:01:06;;;;;;;0.10;0.10;;;;;;;8.20;100.00;97298.16;7394054;19;20026;-56
2022/12/30 08:03:33;;;;;;;1.10;0.40;;;;;;;8.17;100.00;97290.13;7395259;19;20037;-56
2022/12/30 08:06:07;;;;;;;0.10;0.10;;;;;;;8.19;100.00;97282.03;7391583;19;20017;-56
2022/12/30 08:08:34;;;;;;;1.85;0.35;;;;;;;8.21;100.00;97273.94;7391936;19;20010;-56
2022/12/30 08:11:02;;;;;;;0.20;0.10;;;;;;;8.23;100.00;97265.84;7391186;19;20010;-56
2022/12/30 08:13:31;;;;;;;0.00;0.00;;;;;;;8.23;100.00;97255.50;7395060;19;20018;-56
2022/12/30 08:15:57;;;;;;;0.00;0.00;;;;;;;8.21;100.00;97252.53;7392391;19;20015;-56
2022/12/30 08:18:23;;;;;;;3.03;0.65;;;;;;;8.26;100.00;97245.44;7391139;19;20014;-56
2022/12/30 08:20:49;;;;;;;0.65;0.20;;;;;;;8.26;100.00;97243.41;7391774;19;20074;-56
2022/12/30 08:23:15;;;;;;;0.85;0.32;;;;;;;8.19;100.00;97240.44;7396911;19;20450;-56
2022/12/30 08:25:41;;;;;;;1.83;0.38;;;;;;;8.17;100.00;97231.91;7393149;19;20074;-55
2022/12/30 08:28:08;;;;;;;2.30;0.55;;;;;;;8.18;100.00;97231.41;7392129;19;20018;-56
2022/12/30 08:30:34;;;;;;;0.38;0.38;;;;;;;8.17;100.00;97226.38;7391843;19;20018;-56
2022/12/30 08:33:00;;;;;;;1.10;0.68;;;;;;;8.11;100.00;97220.16;7393927;19;20041;-55
2022/12/30 08:35:26;;;;;;;1.75;0.20;;;;;;;8.05;100.00;97211.16;7392344;19;20358;-54
2022/12/30 08:37:52;;;;;;;0.15;0.15;;;;;;;8.03;100.00;97205.38;7399674;19;20010;-55
2022/12/30 08:40:18;;;;;;;0.20;0.20;;;;;;;7.96;100.00;97192.88;7400874;19;20018;-56
2022/12/30 08:42:45;;;;;;;0.00;0.00;;;;;;;7.93;100.00;97199.44;7402140;19;20359;-56
2022/12/30 08:45:11;;;;;;;3.60;0.30;;;;;;;7.88;100.00;97196.75;7404340;19;20015;-58
2022/12/30 08:47:37;;;;;;;0.15;0.15;;;;;;;7.80;100.00;97177.19;7403237;19;20013;-59
2022/12/30 08:50:04;;;;;;;1.27;0.52;;;;;;;7.78;100.00;97165.13;7399051;19;20022;-58
2022/12/30 08:52:30;;;;;;;0.35;0.22;;;;;;;7.74;100.00;97145.28;7400038;19;20011;-58
2022/12/30 08:54:56;;;;;;;7.43;1.65;;;;;;;7.71;100.00;97147.06;7396956;19;20024;-58
2022/12/30 08:57:22;;;;;;;0.10;0.00;;;;;;;7.69;100.00;97135.75;7401877;19;20042;-58
2022/12/30 08:59:48;;;;;;;0.20;0.20;;;;;;;7.68;100.00;97122.44;7398889;19;20006;-58
2022/12/30 09:02:15;;;;;;;0.30;0.28;;;;;;;7.68;100.00;97122.44;7401358;19;20014;-58
2022/12/30 09:04:41;;;;;;;6.93;0.20;;;;;;;7.68;100.00;97119.66;7398879;19;20074;-58
2022/12/30 09:07:07;;;;;;;0.30;0.20;;;;;;;7.70;100.00;97112.34;7397271;19;20019;-58
2022/12/30 09:09:33;;;;;;;0.10;0.00;;;;;;;7.69;100.00;97112.88;7397263;19;20421;-58
2022/12/30 09:11:59;;;;;;;4.57;0.63;;;;;;;7.70;100.00;97097.75;7396015;19;20418;-58
2022/12/30 09:14:25;;;;;;;0.00;0.00;;;;;;;7.71;100.00;97096.47;7397567;19;20015;-58
2022/12/30 09:16:52;;;;;;;0.10;0.00;;;;;;;7.74;100.00;97087.09;7402232;19;20013;-58
2022/12/30 09:19:18;;;;;;;0.20;0.20;;;;;;;7.75;100.00;97080.31;7397678;19;20561;-58
2022/12/30 09:21:44;;;;;;;1.85;0.63;;;;;;;7.76;100.00;97081.78;7395378;19;20497;-58
2022/12/30 09:24:10;;;;;;;0.90;0.10;;;;;;;7.76;100.00;97081.78;7390771;19;20014;-54
2022/12/30 09:26:37;;;;;;;0.68;0.20;;;;;;;7.75;100.00;97066.47;7397270;19;20015;-54
2022/12/30 09:29:03;;;;;;;0.50;0.32;;;;;;;7.75;100.00;97052.59;7393603;19;20030;-54
2022/12/30 09:31:29;;;;;;;0.10;0.10;;;;;;;7.71;100.00;97052.16;7395482;19;20484;-54
2022/12/30 09:33:56;;;;;;;1.88;0.20;;;;;;;7.63;100.00;97038.91;7397583;19;20467;-54
2022/12/30 09:36:22;;;;;;;0.00;0.00;;;;;;;7.61;100.00;97024.84;7400832;19;20421;-54
2022/12/30 09:38:49;;;;;;;0.00;0.00;;;;;;;7.63;100.00;97038.16;7397929;19;20015;-54
2022/12/30 09:44:47;;;;;;;0.30;0.20;;;;;;;7.62;100.00;97009.69;7394085;19;20010;-54
2022/12/30 09:47:22;;;;;;;0.65;0.65;;;;;;;7.62;100.00;97020.78;7393540;19;20054;-54
2022/12/30 09:49:59;;;;;;;1.35;0.10;;;;;;;7.63;100.00;97016.00;7396027;19;20033;-54
2022/12/30 09:52:33;;;;;;;1.77;0.10;;;;;;;7.63;100.00;97005.66;7401137;19;20010;-54
2022/12/30 09:55:05;;;;;;;0.10;0.00;;;;;;;7.69;100.00;96993.78;7399720;19;20015;-54
2022/12/30 09:57:36;;;;;;;6.72;0.45;;;;;;;7.73;100.00;96992.19;7396353;19;20011;-54
2022/12/30 10:00:27;;;;;;;1.27;0.53;;;;;;;7.74;100.00;96985.38;7397210;19;20027;-54
2022/12/30 10:03:15;;;;;;;2.70;0.00;;;;;;;7.74;100.00;96987.38;7398385;19;20006;-53
2022/12/30 10:06:15;;;;;;;0.25;0.10;;;;;;;7.73;100.00;96977.59;7397126;19;20043;-54
2022/12/30 10:08:57;;;;;;;0.45;0.30;;;;;;;7.71;100.00;96972.56;7400781;19;20037;-54
2022/12/30 10:11:46;;;;;;;1.30;0.30;;;;;;;7.70;100.00;96970.34;7396277;19;20006;-54
2022/12/30 10:14:34;;;;;;;3.58;0.80;;;;;;;7.69;100.00;96968.84;7395132;19;20006;-54
2022/12/30 10:17:19;;;;;;;3.90;0.20;;;;;;;7.68;100.00;96956.25;7395411;19;20082;-54
2022/12/30 10:20:36;;;;;;;4.65;0.40;;;;;;;7.67;100.00;96943.69;7396536;19;20017;-54
2022/12/30 10:23:14;;;;;;;2.70;0.10;;;;;;;7.59;100.00;96927.69;7396303;19;20006;-54
2022/12/30 10:25:48;;;;;;;0.20;0.20;;;;;;;7.65;100.00;96935.91;7392869;19;20015;-61
2022/12/30 10:28:24;;;;;;;0.30;0.25;;;;;;;7.63;100.00;96941.97;7395299;19;20070;-61
2022/12/30 10:30:51;;;;;;;3.03;0.85;;;;;;;7.63;100.00;96928.13;7394215;19;20030;-60
2022/12/30 10:33:22;;;;;;;7.15;0.40;;;;;;;7.71;100.00;96913.69;7395109;19;20007;-59
2022/12/30 10:35:56;;;;;;;0.00;0.00;;;;;;;7.67;100.00;96905.66;7393377;19;20019;-59
2022/12/30 10:38:30;;;;;;;2.53;0.22;;;;;;;7.69;100.00;96896.84;7393738;19;20014;-60
2022/12/30 10:41:20;;;;;;;2.05;0.38;;;;;;;7.74;100.00;96896.75;7393685;19;20010;-59
2022/12/30 10:43:52;;;;;;;9.35;0.82;;;;;;;7.78;100.00;96894.41;7397703;19;20010;-60
2022/12/30 10:47:02;;;;;;;6.38;0.80;;;;;;;7.83;100.00;96879.72;7394174;19;20018;-60
2022/12/30 10:50:05;;;;;;;0.00;0.00;;;;;;;7.87;100.00;96869.06;7394742;19;20007;-60
2022/12/30 10:52:32;;;;;;;0.08;0.08;;;;;;;7.91;100.00;96874.28;7396186;19;20011;-59
2022/12/30 10:54:58;;;;;;;3.03;0.90;;;;;;;7.92;100.00;96865.47;7391881;19;20465;-60
2022/12/30 10:57:31;;;;;;;1.30;0.15;;;;;;;7.97;100.00;96855.56;7392593;19;20098;-59
2022/12/30 10:59:58;;;;;;;4.75;1.60;;;;;;;7.98;100.00;96851.50;7393320;19;20014;-60
2022/12/30 11:02:37;;;;;;;1.05;0.50;;;;;;;7.99;100.00;96847.47;7397038;19;20022;-60
2022/12/30 11:05:27;;;;;;;1.38;0.82;;;;;;;8.05;100.00;96837.78;7393890;19;20358;-60
2022/12/30 11:07:55;;;;;;;0.00;0.00;;;;;;;8.10;100.00;96830.63;7393192;19;20027;-59
2022/12/30 11:10:21;;;;;;;0.08;0.00;;;;;;;8.10;100.00;96819.56;7394558;19;20477;-60
2022/12/30 11:15:49;;;;;;;0.35;0.35;;;;;;;8.10;100.00;96814.00;7394335;19;20011;-60
2022/12/30 11:18:16;;;;;;;0.73;0.10;;;;;;;8.13;100.00;96807.38;7394585;19;20045;-60
2022/12/30 11:20:42;;;;;;;3.70;0.20;;;;;;;8.15;100.00;96804.81;7394184;19;20485;-60
2022/12/30 11:25:57;;;;;;;12.70;1.55;;;;;;;8.35;100.00;96773.72;7397224;19;20111;-55
2022/12/30 11:28:31;;;;;;;0.55;0.40;;;;;;;8.45;100.00;96777.53;7393712;19;20018;-55
2022/12/30 11:31:02;;;;;;;1.95;0.10;;;;;;;8.55;100.00;96769.53;7393171;19;20361;-55
2022/12/30 11:33:35;;;;;;;1.25;0.70;;;;;;;8.66;100.00;96772.81;7395074;19;20164;-55
2022/12/30 11:36:20;;;;;;;0.15;0.15;;;;;;;8.71;100.00;96777.47;7394396;19;20021;-55
2022/12/30 11:38:49;;;;;;;0.10;0.10;;;;;;;8.83;100.00;96784.28;7394908;19;20006;-55
2022/12/30 11:41:16;;;;;;;0.32;0.10;;;;;;;8.89;100.00;96765.47;7393364;19;20017;-55
2022/12/30 11:43:43;;;;;;;2.10;0.63;;;;;;;8.98;100.00;96772.59;7397815;19;20051;-55
2022/12/30 11:46:17;;;;;;;0.10;0.10;;;;;;;9.55;100.00;96762.41;7393773;19;20037;-55
2022/12/30 11:48:43;;;;;;;0.30;0.00;;;;;;;9.98;100.00;96754.19;7394121;19;20019;-55
2022/12/30 11:51:23;;;;;;;0.10;0.10;;;;;;;9.41;100.00;96730.41;7393760;19;20021;-55
2022/12/30 11:54:09;;;;;;;0.00;0.00;;;;;;;9.55;100.00;96731.84;7397077;19;20025;-55
2022/12/30 11:56:56;;;;;;;1.20;0.20;;;;;;;9.68;100.00;96732.47;7391834;19;20014;-55
2022/12/30 11:59:35;;;;;;;1.38;0.10;;;;;;;10.52;100.00;96728.91;7393404;19;20458;-55
2022/12/30 12:02:20;;;;;;;8.07;0.63;;;;;;;10.35;100.00;96731.41;7396279;19;20015;-55
2022/12/30 12:04:46;;;;;;;1.10;0.10;;;;;;;10.17;100.00;96721.31;7393749;19;20382;-55
2022/12/30 12:07:15;;;;;;;0.15;0.10;;;;;;;10.03;100.00;96725.47;7393154;19;20467;-55
2022/12/30 12:09:52;;;;;;;5.68;0.28;;;;;;;9.89;100.00;96741.53;7392525;19;20015;-55
2022/12/30 12:12:23;;;;;;;0.57;0.52;;;;;;;9.82;100.00;96758.88;7396628;19;20018;-55
2022/12/30 12:15:02;;;;;;;10.25;1.08;;;;;;;9.82;100.00;96753.34;7399460;19;20027;-55
2022/12/30 12:17:37;;;;;;;0.10;0.10;;;;;;;9.83;100.00;96737.41;7401541;19;20017;-55
2022/12/30 12:20:28;;;;;;;5.57;0.50;;;;;;;9.70;100.00;96762.50;7401663;19;20093;-55
2022/12/30 12:23:03;;;;;;;0.20;0.10;;;;;;;9.68;100.00;96773.44;7403670;19;20023;-55
2022/12/30 12:25:35;;;;;;;0.10;0.00;;;;;;;9.69;100.00;96774.91;7395013;19;20026;-80
2022/12/30 12:28:01;;;;;;;0.80;0.13;;;;;;;9.70;100.00;96768.78;7393388;19;20010;-81
2022/12/30 12:30:52;;;;;;;1.85;0.80;;;;;;;9.71;100.00;96778.63;7392598;19;20086;-82
2022/12/30 12:33:39;;;;;;;0.10;0.10;;;;;;;9.71;100.00;96786.22;7399860;19;20014;-82
2022/12/30 12:36:11;;;;;;;0.10;0.10;;;;;;;9.71;100.00;96808.44;7396647;19;20033;-81
2022/12/30 12:38:53;;;;;;;0.63;0.20;;;;;;;9.73;100.00;96822.53;7402938;19;20018;-84
2022/12/30 12:41:24;;;;;;;2.53;0.95;;;;;;;9.75;100.00;96819.97;7400239;19;20026;-83
2022/12/30 12:43:59;;;;;;;12.27;1.40;;;;;;;9.75;100.00;96814.41;7403762;19;20037;-86
2022/12/30 12:46:35;;;;;;;7.82;1.63;;;;;;;9.74;100.00;96812.94;7401464;19;20092;-86